Time;durP1;ratioP1;P1;durP2;ratioP2;P2;SDS_P1;SDS_P2;PMS_P1;PMS_P2;Temp;Humidity;BMP_temperature;BMP_pressure;BME280_temperature;BME280_humidity;BME280_pressure;Samples;Min_cycle;Max_cycle;Signal;HPM_P1;HPM_P2
2022/04/28 00:00:51;;;;;;;3.40;2.87;;;;;;;16.26;67.25;101597.16;2595406;22;20154;-63
2022/04/28 00:01:51;;;;;;;4.00;3.00;;;;;;;16.27;67.03;101587.53;2595895;22;20574;-63
2022/04/28 00:02:53;;;;;;;4.00;3.10;;;;;;;16.26;67.23;101589.56;2595940;22;20147;-63
2022/04/28 00:03:53;;;;;;;3.50;3.20;;;;;;;16.29;67.11;101587.88;2595734;22;20174;-62
2022/04/28 00:04:54;;;;;;;5.10;3.00;;;;;;;16.30;67.19;101595.78;2595626;22;20915;-63
2022/04/28 00:05:54;;;;;;;3.63;3.33;;;;;;;16.29;67.02;101599.84;2595887;22;20188;-63
2022/04/28 00:06:55;;;;;;;4.43;3.50;;;;;;;16.20;67.25;101596.16;2595398;22;20177;-63
2022/04/28 00:07:55;;;;;;;4.13;3.40;;;;;;;16.10;67.61;101595.25;2595841;22;20544;-63
2022/04/28 00:08:56;;;;;;;4.30;3.90;;;;;;;16.12;67.62;101597.59;2595600;22;20179;-63
2022/04/28 00:09:56;;;;;;;4.23;3.83;;;;;;;15.60;67.47;101518.94;2595976;22;20225;-63
2022/04/28 00:10:57;;;;;;;4.03;3.63;;;;;;;16.07;67.89;101598.94;2595520;22;20231;-63
2022/04/28 00:11:57;;;;;;;10.97;3.87;;;;;;;16.11;67.80;101601.63;2596080;22;20170;-63
2022/04/28 00:13:00;;;;;;;4.10;3.70;;;;;;;16.12;67.66;101605.97;2595687;22;20229;-63
2022/04/28 00:14:01;;;;;;;3.93;3.40;;;;;;;15.04;67.19;101446.00;2595826;22;20197;-63
2022/04/28 00:15:02;;;;;;;4.50;3.73;;;;;;;15.64;67.30;101542.78;2595570;22;20910;-63
2022/04/28 00:16:03;;;;;;;3.83;3.33;;;;;;;15.88;66.72;101596.34;2582161;23;20174;-63
2022/04/28 00:17:04;;;;;;;4.03;3.27;;;;;;;15.77;67.02;101571.50;2582074;23;20402;-63
2022/04/28 00:18:05;;;;;;;4.53;3.50;;;;;;;15.94;66.96;101600.94;2582825;22;20155;-63
2022/04/28 00:19:05;;;;;;;3.77;3.47;;;;;;;16.00;67.11;101620.75;2582039;22;20407;-63
2022/04/28 00:20:07;;;;;;;3.60;3.30;;;;;;;15.84;67.33;101595.69;2595637;22;20161;-63
2022/04/28 00:21:07;;;;;;;3.57;3.27;;;;;;;15.97;67.40;101607.63;2595729;22;20171;-63
2022/04/28 00:22:08;;;;;;;4.50;3.50;;;;;;;15.95;67.48;101604.53;2595684;22;20934;-63
2022/04/28 00:23:09;;;;;;;4.00;3.60;;;;;;;15.04;67.32;101473.91;2595863;22;20579;-63
2022/04/28 00:24:09;;;;;;;3.90;3.60;;;;;;;15.92;67.84;101606.19;2595417;22;20884;-63
2022/04/28 00:25:10;;;;;;;3.67;3.27;;;;;;;15.45;67.51;101537.34;2595475;22;20155;-62
2022/04/28 00:26:11;;;;;;;3.50;3.20;;;;;;;15.84;67.54;101604.81;2595646;22;20145;-63
2022/04/28 00:27:11;;;;;;;3.20;2.90;;;;;;;15.80;67.59;101603.38;2595772;22;20149;-63
2022/04/28 00:28:12;;;;;;;4.50;2.97;;;;;;;15.65;67.63;101586.25;2595736;22;20155;-62
2022/04/28 00:29:12;;;;;;;3.00;2.60;;;;;;;15.69;67.70;101603.72;2595156;22;20147;-63
2022/04/28 00:30:13;;;;;;;2.83;2.53;;;;;;;15.72;67.69;101602.03;2595311;22;20154;-63
2022/04/28 00:31:14;;;;;;;4.37;2.57;;;;;;;15.29;67.26;101551.38;2595175;22;20143;-63
2022/04/28 00:32:14;;;;;;;3.33;2.83;;;;;;;15.70;67.19;101622.03;2595819;22;20152;-62
2022/04/28 00:33:15;;;;;;;2.73;2.47;;;;;;;15.68;67.04;101604.91;2595446;22;20179;-63
2022/04/28 00:34:15;;;;;;;2.50;2.30;;;;;;;14.88;67.00;101501.88;2595623;22;20145;-62
2022/04/28 00:35:16;;;;;;;2.20;2.00;;;;;;;15.59;66.61;101615.97;2594581;22;20194;-62
2022/04/28 00:36:16;;;;;;;3.40;1.60;;;;;;;15.57;66.49;101626.03;2594397;22;20143;-63
2022/04/28 00:37:18;;;;;;;2.80;1.80;;;;;;;15.52;66.83;101629.34;2595479;22;20498;-63
2022/04/28 00:38:19;;;;;;;2.60;1.70;;;;;;;15.43;66.48;101612.44;2595762;22;20175;-62
2022/04/28 00:39:19;;;;;;;2.13;1.83;;;;;;;15.46;66.52;101626.31;2595219;22;20376;-63
2022/04/28 00:40:20;;;;;;;4.17;2.03;;;;;;;15.42;66.57;101622.06;2595332;22;20159;-63
2022/04/28 00:41:20;;;;;;;3.73;1.80;;;;;;;15.37;66.67;101626.16;2595356;22;20154;-62
2022/04/28 00:42:21;;;;;;;2.70;1.57;;;;;;;14.93;66.67;101575.91;2582125;23;20156;-63
2022/04/28 00:43:26;;;;;;;2.10;1.57;;;;;;;15.15;66.30;101608.38;2581772;23;20183;-63
2022/04/28 00:44:26;;;;;;;1.60;1.50;;;;;;;15.15;66.72;101619.56;2595466;22;20202;-62
2022/04/28 00:45:27;;;;;;;1.70;1.60;;;;;;;15.06;66.98;101604.66;2595204;22;20409;-62
2022/04/28 00:46:27;;;;;;;2.60;1.77;;;;;;;14.86;67.23;101595.63;2595345;22;20231;-62
2022/04/28 00:50:38;;;;;;;7.60;1.93;;;;;;;15.17;67.33;101611.50;2595547;22;20238;-63
2022/04/28 00:51:28;;;;;;;2.10;1.80;;;;;;;15.14;67.41;101622.78;2595510;22;20350;-63
2022/04/28 00:52:32;;;;;;;3.07;1.40;;;;;;;15.06;67.25;101615.84;2595518;22;20369;-62
2022/04/28 00:53:37;;;;;;;1.73;1.40;;;;;;;14.55;67.18;101538.66;2594309;22;20385;-62
2022/04/28 00:54:37;;;;;;;5.63;1.80;;;;;;;15.09;67.46;101635.28;2595012;22;20372;-63
2022/04/28 00:55:38;;;;;;;2.47;1.60;;;;;;;14.72;67.49;101574.47;2581720;23;20383;-62
2022/04/28 00:56:39;;;;;;;2.47;1.40;;;;;;;14.71;67.31;101586.06;2581952;23;20188;-62
2022/04/28 00:57:40;;;;;;;2.90;1.50;;;;;;;15.13;67.17;101633.19;2595337;22;20374;-63
2022/04/28 00:58:41;;;;;;;2.83;1.70;;;;;;;15.13;67.11;101638.78;2595396;22;20766;-62
2022/04/28 00:59:42;;;;;;;3.83;1.53;;;;;;;15.07;67.41;101631.34;2595446;22;20154;-62
2022/04/28 01:00:43;;;;;;;2.57;1.60;;;;;;;14.81;67.50;101601.75;2595226;22;20590;-62
2022/04/28 01:01:43;;;;;;;3.30;1.80;;;;;;;15.03;67.63;101619.50;2595642;22;20445;-62
2022/04/28 01:02:44;;;;;;;2.13;1.50;;;;;;;14.29;67.54;101497.88;2595469;22;20378;-62
2022/04/28 01:03:46;;;;;;;2.67;1.87;;;;;;;15.16;67.01;101620.34;2581531;23;20171;-63
2022/04/28 01:04:47;;;;;;;1.70;1.60;;;;;;;14.81;66.55;101557.84;2582095;22;20301;-62
2022/04/28 01:05:48;;;;;;;2.03;1.60;;;;;;;14.69;66.84;101543.84;2595398;22;20374;-63
2022/04/28 01:06:51;;;;;;;2.67;1.70;;;;;;;15.21;66.86;101631.00;2595463;22;20387;-62
2022/04/28 01:07:51;;;;;;;2.57;1.50;;;;;;;15.26;66.79;101628.44;2595701;22;20147;-62
2022/04/28 01:08:52;;;;;;;3.50;1.43;;;;;;;15.33;66.50;101627.50;2595469;22;20401;-63
2022/04/28 01:09:53;;;;;;;1.47;1.37;;;;;;;15.32;66.45;101631.47;2595726;22;20237;-63
2022/04/28 01:10:54;;;;;;;1.67;1.40;;;;;;;15.33;66.11;101624.69;2595107;22;20151;-63
2022/04/28 01:11:54;;;;;;;1.80;1.37;;;;;;;15.29;66.19;101621.97;2595522;22;20290;-62
2022/04/28 01:12:56;;;;;;;1.40;1.23;;;;;;;14.90;66.22;101557.25;2595520;22;20438;-63
2022/04/28 01:13:57;;;;;;;1.63;0.90;;;;;;;15.39;65.29;101628.50;2595368;22;20153;-62
2022/04/28 01:14:58;;;;;;;2.90;1.23;;;;;;;15.41;65.03;101637.22;2595119;22;20378;-63
2022/04/28 01:16:00;;;;;;;1.57;1.10;;;;;;;15.37;64.71;101626.16;2595597;22;20596;-63
2022/04/28 01:17:02;;;;;;;3.50;1.20;;;;;;;15.40;64.72;101628.06;2595120;22;20381;-62
2022/04/28 01:18:02;;;;;;;2.57;1.00;;;;;;;15.45;63.70;101635.13;2595694;22;20397;-62
2022/04/28 01:19:03;;;;;;;2.50;0.97;;;;;;;15.49;63.68;101630.22;2595139;22;20863;-63
2022/04/28 01:20:04;;;;;;;2.43;1.03;;;;;;;15.00;63.34;101561.75;2595320;22;20154;-63
2022/04/28 01:21:05;;;;;;;1.43;1.17;;;;;;;14.98;63.14;101564.19;2595371;22;20161;-62
2022/04/28 01:22:06;;;;;;;1.93;1.10;;;;;;;14.73;63.40;101531.38;2595596;22;20146;-63
2022/04/28 01:23:07;;;;;;;1.97;0.90;;;;;;;15.21;63.38;101615.00;2595334;22;20885;-62
2022/04/28 01:24:07;;;;;;;1.93;0.80;;;;;;;15.40;63.49;101635.66;2595299;22;20424;-63
2022/04/28 01:25:09;;;;;;;1.93;0.90;;;;;;;15.33;63.39;101624.69;2595303;22;20910;-63
2022/04/28 01:26:12;;;;;;;1.57;0.90;;;;;;;15.45;62.74;101641.50;2595123;22;20157;-63
2022/04/28 01:27:13;;;;;;;4.23;1.00;;;;;;;15.44;62.44;101653.13;2594605;22;20381;-63
2022/04/28 01:28:14;;;;;;;2.40;0.80;;;;;;;15.42;61.94;101630.44;2595032;22;20362;-63
2022/04/28 01:29:15;;;;;;;2.10;0.80;;;;;;;15.47;61.68;101655.81;2594593;22;20386;-63
2022/04/28 01:30:15;;;;;;;1.00;0.70;;;;;;;15.15;61.63;101600.00;2581728;23;20159;-63
2022/04/28 01:31:16;;;;;;;1.13;0.90;;;;;;;15.51;61.37;101647.31;2581934;23;20158;-62
2022/04/28 01:32:16;;;;;;;2.60;0.80;;;;;;;15.56;61.72;101666.34;2595429;22;20150;-63
2022/04/28 01:33:17;;;;;;;1.93;0.90;;;;;;;15.58;61.71;101656.28;2594907;22;20147;-63
2022/04/28 01:34:17;;;;;;;2.13;1.00;;;;;;;15.17;61.59;101597.56;2595628;22;20144;-63
2022/04/28 01:35:18;;;;;;;2.53;1.00;;;;;;;15.26;61.47;101594.16;2594991;22;20154;-63
2022/04/28 01:36:18;;;;;;;2.80;0.90;;;;;;;15.64;61.24;101657.34;2595473;22;20184;-63
2022/04/28 01:37:19;;;;;;;0.90;0.70;;;;;;;15.61;61.46;101660.22;2595139;22;20172;-63
2022/04/28 01:38:20;;;;;;;2.00;0.60;;;;;;;15.56;60.86;101644.78;2582021;23;20420;-63
2022/04/28 01:39:20;;;;;;;1.83;0.67;;;;;;;15.67;60.45;101659.22;2581337;23;20155;-63
2022/04/28 01:40:21;;;;;;;0.73;0.50;;;;;;;15.68;60.62;101662.81;2595129;22;20157;-63
2022/04/28 01:41:21;;;;;;;0.83;0.70;;;;;;;15.65;61.02;101658.91;2595328;22;20151;-63
2022/04/28 01:42:23;;;;;;;1.43;0.60;;;;;;;15.63;61.20;101663.38;2595605;22;20499;-63
2022/04/28 01:43:24;;;;;;;4.00;0.70;;;;;;;15.68;61.17;101655.22;2594766;22;20623;-63
2022/04/28 01:44:24;;;;;;;1.00;0.60;;;;;;;15.74;61.24;101655.47;2595451;22;20782;-64
2022/04/28 01:45:25;;;;;;;1.00;0.60;;;;;;;15.68;61.71;101648.84;2594811;22;20548;-63
2022/04/28 01:46:25;;;;;;;2.70;0.87;;;;;;;15.71;61.77;101651.53;2595140;22;20179;-63
2022/04/28 01:47:26;;;;;;;2.07;0.80;;;;;;;15.68;62.24;101652.41;2595185;22;20500;-62
2022/04/28 01:48:26;;;;;;;1.37;0.70;;;;;;;15.68;62.67;101651.66;2595446;22;20155;-62
2022/04/28 01:49:28;;;;;;;1.67;0.80;;;;;;;15.42;63.35;101616.47;2595030;22;20151;-63
2022/04/28 01:50:28;;;;;;;2.63;1.10;;;;;;;15.65;63.61;101652.53;2595162;22;20166;-63
2022/04/28 01:55:25;;;;;;;1.77;0.50;;;;;;;15.33;65.42;101607.94;2594659;22;20835;-63
2022/04/28 01:56:26;;;;;;;3.27;0.77;;;;;;;15.73;65.02;101651.88;2595172;22;20794;-62
2022/04/28 01:57:29;;;;;;;1.37;0.60;;;;;;;15.69;64.65;101651.22;2594907;22;20278;-63
2022/04/28 01:58:29;;;;;;;2.63;0.83;;;;;;;15.68;65.10;101641.25;2595276;22;20633;-63
2022/04/28 01:59:30;;;;;;;1.50;0.60;;;;;;;15.27;64.71;101588.09;2594381;22;20399;-63
2022/04/28 02:00:31;;;;;;;3.73;0.90;;;;;;;15.34;64.95;101589.94;2594908;22;20181;-63
2022/04/28 02:01:32;;;;;;;4.40;0.80;;;;;;;15.69;65.88;101640.03;2594849;22;20611;-63
2022/04/28 02:02:34;;;;;;;1.60;0.50;;;;;;;15.71;66.39;101636.78;2595303;22;20726;-63
2022/04/28 02:03:34;;;;;;;1.00;0.60;;;;;;;15.46;66.30;101612.34;2594573;22;20155;-63
2022/04/28 02:04:35;;;;;;;1.33;0.70;;;;;;;15.70;66.21;101647.19;2595304;22;20435;-63
2022/04/28 02:05:35;;;;;;;1.53;0.60;;;;;;;15.74;66.66;101645.06;2594625;22;20151;-63
2022/04/28 02:06:36;;;;;;;1.10;0.77;;;;;;;15.60;67.33;101619.53;2595080;22;20484;-63
2022/04/28 02:07:37;;;;;;;1.60;0.63;;;;;;;15.79;67.59;101646.53;2595044;22;20178;-63
2022/04/28 02:08:39;;;;;;;1.10;0.60;;;;;;;15.77;67.64;101646.19;2595258;22;20539;-63
2022/04/28 02:09:41;;;;;;;1.60;0.80;;;;;;;15.30;67.66;101572.47;2595027;22;20376;-63
2022/04/28 02:10:42;;;;;;;0.60;0.60;;;;;;;15.74;67.60;101644.28;2594671;22;20374;-63
2022/04/28 02:11:42;;;;;;;1.60;0.80;;;;;;;15.72;67.83;101639.13;2595060;22;20373;-63
2022/04/28 02:12:43;;;;;;;1.50;0.70;;;;;;;15.71;67.70;101637.56;2581704;23;20210;-63
2022/04/28 02:13:43;;;;;;;2.37;0.60;;;;;;;15.67;66.82;101639.66;2581346;23;20151;-62
2022/04/28 02:14:44;;;;;;;1.30;0.53;;;;;;;14.95;65.46;101540.75;2595046;22;20156;-62
2022/04/28 02:15:45;;;;;;;1.07;0.53;;;;;;;15.52;65.55;101618.19;2594624;22;20154;-63
2022/04/28 02:16:46;;;;;;;7.23;0.70;;;;;;;15.28;65.81;101586.91;2594588;22;20748;-63
2022/04/28 02:17:46;;;;;;;2.27;0.60;;;;;;;15.32;65.81;101590.34;2581663;23;20401;-62
2022/04/28 02:18:47;;;;;;;0.93;0.57;;;;;;;15.56;65.47;101635.59;2581423;23;20148;-63
2022/04/28 02:19:48;;;;;;;1.30;0.60;;;;;;;15.56;65.63;101641.19;2595142;22;20593;-63
2022/04/28 02:20:49;;;;;;;1.30;0.50;;;;;;;15.45;64.52;101626.75;2594695;22;20607;-63
2022/04/28 02:21:49;;;;;;;0.87;0.70;;;;;;;15.45;64.46;101635.91;2595129;22;20376;-63
2022/04/28 02:22:49;;;;;;;0.97;0.60;;;;;;;14.89;64.37;101617.06;2594936;22;20192;-63
2022/04/28 02:23:50;;;;;;;2.10;0.60;;;;;;;15.38;64.07;101624.16;2594628;22;20534;-63
2022/04/28 02:24:50;;;;;;;0.60;0.50;;;;;;;15.41;64.61;101640.81;2594932;22;20236;-63
2022/04/28 02:25:51;;;;;;;1.80;0.60;;;;;;;15.20;64.85;101601.47;2595073;22;20225;-64
2022/04/28 02:26:51;;;;;;;1.50;0.67;;;;;;;15.44;65.55;101641.94;2594922;22;20622;-63
2022/04/28 02:27:52;;;;;;;0.70;0.50;;;;;;;15.45;65.76;101646.28;2595287;22;20189;-63
2022/04/28 02:28:52;;;;;;;1.70;0.47;;;;;;;15.42;65.48;101645.16;2594743;22;20225;-64
2022/04/28 02:29:53;;;;;;;1.00;0.43;;;;;;;15.08;64.99;101591.84;2595169;22;20173;-63
2022/04/28 02:30:54;;;;;;;2.23;0.60;;;;;;;15.06;65.24;101577.53;2594637;22;20150;-63
2022/04/28 02:31:54;;;;;;;3.17;0.80;;;;;;;15.03;65.51;101575.63;2581693;23;20482;-63
2022/04/28 02:33:10;;;;;;;0.77;0.50;;;;;;;15.54;65.18;101652.03;2581546;23;20216;-63
2022/04/28 02:34:11;;;;;;;1.57;0.80;;;;;;;15.51;64.75;101650.13;2595222;22;20127;-63
2022/04/28 02:35:11;;;;;;;0.97;0.60;;;;;;;15.53;64.79;101653.28;2594858;22;20387;-63
2022/04/28 02:36:13;;;;;;;0.77;0.60;;;;;;;15.51;64.76;101659.28;2594868;22;20148;-64
2022/04/28 02:37:16;;;;;;;1.33;0.50;;;;;;;15.53;64.73;101653.28;2595008;22;20143;-62
2022/04/28 02:38:16;;;;;;;0.80;0.60;;;;;;;15.35;65.33;101645.38;2595227;22;20371;-63
2022/04/28 02:39:18;;;;;;;1.83;0.70;;;;;;;15.38;64.92;101661.25;2594862;22;20442;-63
2022/04/28 02:40:18;;;;;;;1.23;0.70;;;;;;;15.00;65.30;101587.66;2595016;22;20241;-63
2022/04/28 02:41:22;;;;;;;1.33;0.60;;;;;;;15.34;64.62;101656.97;2594815;22;20439;-63
2022/04/28 02:42:22;;;;;;;1.50;0.57;;;;;;;14.82;63.67;101578.97;2595263;22;20213;-62
2022/04/28 02:43:23;;;;;;;1.40;0.80;;;;;;;15.30;64.47;101657.06;2594965;22;20408;-63
2022/04/28 02:44:23;;;;;;;2.20;0.70;;;;;;;14.55;65.99;101555.38;2595084;22;20692;-63
2022/04/28 02:45:24;;;;;;;0.70;0.60;;;;;;;15.18;64.89;101649.41;2594951;22;20155;-63
2022/04/28 02:46:24;;;;;;;1.00;0.60;;;;;;;15.18;64.89;101662.56;2581665;23;20483;-63
2022/04/28 02:47:25;;;;;;;1.07;0.50;;;;;;;14.94;65.18;101624.91;2581759;23;20157;-63
2022/04/28 02:48:25;;;;;;;0.70;0.60;;;;;;;15.13;64.58;101668.69;2595314;22;20430;-63
2022/04/28 02:49:26;;;;;;;1.40;0.70;;;;;;;15.01;64.28;101641.50;2595029;22;20223;-62
2022/04/28 02:50:27;;;;;;;1.90;0.50;;;;;;;15.23;64.40;101676.81;2594908;22;20155;-63
2022/04/28 02:51:27;;;;;;;1.30;0.60;;;;;;;15.24;64.27;101663.59;2595305;22;20149;-63
2022/04/28 02:52:29;;;;;;;1.40;0.77;;;;;;;15.03;64.60;101627.88;2595368;22;20175;-63
2022/04/28 02:53:29;;;;;;;0.80;0.70;;;;;;;15.16;64.25;101642.69;2594945;22;20150;-63
2022/04/28 02:54:31;;;;;;;0.50;0.50;;;;;;;15.03;64.67;101627.88;2595457;22;20431;-63
2022/04/28 02:55:31;;;;;;;0.87;0.60;;;;;;;15.35;64.41;101667.72;2581614;23;20188;-63
2022/04/28 02:56:32;;;;;;;0.87;0.50;;;;;;;15.20;64.21;101655.31;2581665;23;20380;-62
2022/04/28 02:57:33;;;;;;;0.97;0.50;;;;;;;15.09;62.74;101640.88;2595258;22;20502;-63
2022/04/28 02:58:34;;;;;;;1.80;0.63;;;;;;;15.39;63.48;101679.59;2595292;22;20382;-63
2022/04/28 02:59:34;;;;;;;1.70;0.70;;;;;;;15.41;63.36;101676.34;2594935;22;20179;-63
2022/04/28 03:00:38;;;;;;;0.87;0.60;;;;;;;15.37;62.48;101670.06;2595278;22;20540;-63
2022/04/28 03:01:38;;;;;;;1.77;0.60;;;;;;;15.37;62.72;101678.47;2595368;22;20150;-63
2022/04/28 03:02:38;;;;;;;1.67;0.50;;;;;;;15.27;62.96;101666.28;2595474;22;20380;-63
2022/04/28 03:03:39;;;;;;;1.73;0.60;;;;;;;15.33;62.75;101684.16;2594882;22;20147;-63
2022/04/28 03:04:39;;;;;;;0.70;0.57;;;;;;;15.31;62.59;101672.56;2595453;22;20152;-63
2022/04/28 03:10:55;;;;;;;1.60;0.80;;;;;;;15.03;63.27;101681.69;2595018;22;20360;-63
2022/04/28 03:11:57;;;;;;;1.50;0.60;;;;;;;14.99;62.58;101678.22;2581753;23;20401;-63
2022/04/28 03:12:58;;;;;;;1.27;0.60;;;;;;;14.99;62.49;101681.00;2581745;22;20153;-64
2022/04/28 03:13:59;;;;;;;3.40;0.80;;;;;;;14.74;62.18;101640.97;2581368;23;20391;-63
2022/04/28 03:14:59;;;;;;;1.87;0.60;;;;;;;14.99;62.81;101692.16;2581640;23;20154;-63
2022/04/28 03:16:00;;;;;;;1.33;0.70;;;;;;;14.99;62.67;101685.78;2595491;22;20588;-63
2022/04/28 03:17:01;;;;;;;0.70;0.60;;;;;;;14.76;62.43;101650.47;2595050;22;20187;-62
2022/04/28 03:18:02;;;;;;;2.57;0.70;;;;;;;14.54;62.15;101631.91;2595495;22;20379;-63
2022/04/28 03:19:03;;;;;;;1.00;0.83;;;;;;;14.76;62.03;101661.63;2594993;22;20621;-63
2022/04/28 03:20:04;;;;;;;2.83;0.77;;;;;;;14.97;62.57;101691.81;2595274;22;20541;-63
2022/04/28 03:21:05;;;;;;;2.60;0.80;;;;;;;14.37;62.38;101608.81;2594151;22;20386;-63
2022/04/28 03:22:06;;;;;;;2.17;0.70;;;;;;;14.60;62.53;101653.25;2583783;22;20549;-63
2022/04/28 03:23:06;;;;;;;2.77;0.77;;;;;;;14.68;62.14;101687.34;2581604;23;20239;-63
2022/04/28 03:24:07;;;;;;;1.83;0.70;;;;;;;14.56;62.25;101677.66;2594268;22;20185;-63
2022/04/28 03:25:08;;;;;;;1.17;0.60;;;;;;;14.58;61.73;101685.59;2594944;22;20144;-63
2022/04/28 03:26:08;;;;;;;1.30;0.70;;;;;;;14.13;62.01;101623.28;2595414;22;20147;-63
2022/04/28 03:27:09;;;;;;;1.27;0.70;;;;;;;14.43;61.68;101679.56;2595987;22;20179;-63
2022/04/28 03:28:10;;;;;;;5.37;0.93;;;;;;;14.48;61.90;101695.00;2596311;22;20605;-63
2022/04/28 03:29:10;;;;;;;0.90;0.70;;;;;;;14.11;62.37;101646.03;2595917;22;20519;-63
2022/04/28 03:30:11;;;;;;;1.90;0.80;;;;;;;14.37;63.18;101695.25;2595744;22;20398;-63
2022/04/28 03:31:12;;;;;;;2.10;0.87;;;;;;;14.38;62.60;101702.41;2595978;22;20207;-64
2022/04/28 03:32:13;;;;;;;2.23;0.80;;;;;;;13.86;62.19;101619.91;2596314;22;20439;-63
2022/04/28 03:33:14;;;;;;;2.83;0.90;;;;;;;14.37;62.68;101706.41;2595729;22;20155;-63
2022/04/28 03:34:15;;;;;;;1.27;0.70;;;;;;;14.33;62.75;101705.69;2596030;22;20169;-63
2022/04/28 03:35:15;;;;;;;3.60;0.90;;;;;;;14.27;63.23;101698.25;2596091;22;20154;-62
2022/04/28 03:37:35;;;;;;;2.93;0.90;;;;;;;14.29;62.88;101699.41;2595963;22;20139;-63
2022/04/28 03:38:36;;;;;;;1.10;0.77;;;;;;;13.76;63.15;101638.41;2596190;22;20373;-63
2022/04/28 03:39:37;;;;;;;1.57;0.80;;;;;;;14.35;62.92;101714.41;2595786;22;20543;-63
2022/04/28 03:40:41;;;;;;;4.17;0.90;;;;;;;14.40;62.34;101713.13;2595926;22;20626;-62
2022/04/28 03:41:42;;;;;;;2.30;0.80;;;;;;;14.34;61.93;101712.84;2595077;22;20450;-63
2022/04/28 03:42:44;;;;;;;1.60;0.70;;;;;;;13.97;62.51;101665.84;2595398;22;20402;-63
2022/04/28 03:43:47;;;;;;;1.70;0.80;;;;;;;13.71;63.07;101627.78;2595933;22;20510;-63
2022/04/28 03:44:48;;;;;;;1.80;0.80;;;;;;;14.23;62.76;101712.28;2595870;22;20392;-63
2022/04/28 03:45:51;;;;;;;2.43;0.70;;;;;;;14.21;62.84;101720.31;2595902;22;20383;-64
2022/04/28 03:46:51;;;;;;;2.77;0.90;;;;;;;14.23;63.60;101714.28;2595753;22;20147;-63
2022/04/28 03:47:52;;;;;;;1.07;0.50;;;;;;;14.28;63.64;101719.34;2596148;22;20378;-63
2022/04/28 03:48:52;;;;;;;2.67;0.63;;;;;;;14.33;63.08;101719.63;2595014;22;20641;-62
2022/04/28 03:49:55;;;;;;;1.53;0.73;;;;;;;14.31;63.63;101727.66;2595541;22;20152;-63
2022/04/28 03:50:56;;;;;;;1.60;0.80;;;;;;;13.61;64.47;101619.63;2595900;22;20507;-63
2022/04/28 03:51:56;;;;;;;2.97;0.80;;;;;;;14.34;65.00;101720.44;2596090;22;20379;-63
2022/04/28 03:52:57;;;;;;;2.10;0.67;;;;;;;14.35;64.26;101727.56;2596064;22;20154;-63
2022/04/28 03:54:00;;;;;;;1.23;0.70;;;;;;;14.31;64.34;101718.50;2596189;22;20597;-63
2022/04/28 03:55:00;;;;;;;2.17;0.70;;;;;;;13.64;63.72;101613.22;2595935;22;20607;-63
2022/04/28 03:56:01;;;;;;;1.40;0.63;;;;;;;14.22;63.26;101702.38;2595944;22;20847;-63
2022/04/28 03:57:02;;;;;;;1.90;0.90;;;;;;;14.44;62.89;101730.56;2595983;22;20177;-63
2022/04/28 03:58:02;;;;;;;0.70;0.63;;;;;;;14.39;62.99;101715.13;2596278;22;20146;-63
2022/04/28 03:59:03;;;;;;;1.07;0.70;;;;;;;14.57;62.88;101734.25;2594978;22;20157;-62
2022/04/28 04:00:06;;;;;;;2.37;0.90;;;;;;;14.63;62.40;101736.09;2582563;22;20166;-62
2022/04/28 04:01:07;;;;;;;2.47;0.80;;;;;;;14.64;62.70;101740.44;2595096;22;20863;-63
2022/04/28 04:02:07;;;;;;;2.17;0.70;;;;;;;14.67;62.22;101742.38;2596074;22;20800;-62
2022/04/28 04:03:08;;;;;;;1.97;1.00;;;;;;;14.72;62.46;101739.09;2595766;22;20222;-63
2022/04/28 04:04:08;;;;;;;1.13;0.80;;;;;;;14.66;62.77;101729.63;2595165;22;20217;-62
2022/04/28 04:05:09;;;;;;;3.00;0.80;;;;;;;14.72;63.28;101739.09;2595165;22;20647;-63
2022/04/28 04:06:10;;;;;;;1.83;0.83;;;;;;;14.74;62.51;101739.44;2595749;22;20613;-63
2022/04/28 04:07:10;;;;;;;1.43;0.63;;;;;;;14.81;62.35;101746.84;2596003;22;20774;-63
2022/04/28 04:08:11;;;;;;;1.57;0.80;;;;;;;14.70;62.00;101721.97;2596275;22;20173;-63
2022/04/28 04:09:12;;;;;;;2.63;1.00;;;;;;;14.79;61.71;101738.91;2595020;22;20154;-62
2022/04/28 04:10:13;;;;;;;1.40;0.80;;;;;;;14.84;61.15;101738.38;2595206;22;20380;-63
2022/04/28 04:11:14;;;;;;;3.03;0.80;;;;;;;14.86;61.53;101735.16;2596040;22;20227;-63
2022/04/28 04:12:14;;;;;;;1.33;0.80;;;;;;;14.87;61.58;101734.75;2596058;22;20379;-63
2022/04/28 04:13:15;;;;;;;2.93;0.80;;;;;;;14.91;61.52;101743.78;2595810;22;20172;-63
2022/04/28 04:14:16;;;;;;;1.33;0.73;;;;;;;14.94;61.15;101745.72;2596156;22;20151;-63
2022/04/28 04:15:16;;;;;;;1.17;0.80;;;;;;;14.98;61.31;101746.44;2595856;22;20427;-63
2022/04/28 04:16:17;;;;;;;2.33;0.90;;;;;;;14.98;61.61;101749.22;2595176;22;20709;-62
2022/04/28 04:17:18;;;;;;;1.93;0.77;;;;;;;14.97;61.46;101744.06;2595129;22;20686;-62
2022/04/28 04:18:18;;;;;;;3.20;0.87;;;;;;;14.97;61.21;101750.44;2596139;22;20591;-63
2022/04/28 04:19:19;;;;;;;4.17;1.20;;;;;;;14.97;61.88;101758.03;2594817;22;20262;-62
2022/04/28 04:20:19;;;;;;;2.83;0.90;;;;;;;14.60;62.09;101700.69;2595116;22;20486;-62
2022/04/28 04:21:20;;;;;;;1.37;0.87;;;;;;;14.92;61.72;101753.75;2596219;22;20160;-63
2022/04/28 04:22:21;;;;;;;2.00;0.60;;;;;;;14.94;61.49;101747.72;2596003;22;20198;-63
2022/04/28 04:23:22;;;;;;;2.73;0.87;;;;;;;15.04;61.47;101747.47;2595705;22;20884;-64
2022/04/28 04:24:22;;;;;;;1.77;0.70;;;;;;;14.85;60.41;101728.03;2595790;22;20182;-63
2022/04/28 04:25:23;;;;;;;3.67;0.90;;;;;;;14.90;60.57;101752.63;2595845;22;20154;-63
2022/04/28 04:26:23;;;;;;;1.73;0.80;;;;;;;14.60;61.80;101700.69;2595934;22;20569;-63
2022/04/28 04:27:24;;;;;;;3.17;0.90;;;;;;;14.83;62.53;101738.81;2595978;22;20147;-63
2022/04/28 04:28:25;;;;;;;5.07;0.90;;;;;;;14.93;62.61;101751.75;2595819;22;20155;-63
2022/04/28 04:29:25;;;;;;;4.10;0.80;;;;;;;14.91;62.45;101743.03;2595801;22;20381;-63
2022/04/28 04:33:04;;;;;;;1.97;1.00;;;;;;;15.07;61.46;101754.19;2595768;22;20777;-63
2022/04/28 04:34:04;;;;;;;1.40;0.80;;;;;;;15.13;60.95;101753.25;2582170;23;20381;-63
2022/04/28 04:35:05;;;;;;;1.97;0.80;;;;;;;14.63;61.30;101699.03;2569387;23;20719;-63
2022/04/28 04:36:06;;;;;;;2.50;0.90;;;;;;;15.08;62.03;101759.34;2582220;23;20500;-63
2022/04/28 04:37:06;;;;;;;4.77;1.47;;;;;;;15.10;62.15;101756.09;2595395;22;20502;-63
2022/04/28 04:38:06;;;;;;;1.63;0.80;;;;;;;15.01;62.20;101753.16;2595328;22;20275;-64
2022/04/28 04:39:07;;;;;;;4.37;1.40;;;;;;;15.07;62.12;101754.19;2582112;23;20186;-63
2022/04/28 04:40:13;;;;;;;1.50;0.90;;;;;;;15.05;61.39;101740.66;2581994;23;20157;-63
2022/04/28 04:41:13;;;;;;;1.20;0.90;;;;;;;15.15;61.70;101761.97;2595545;22;20134;-63
2022/04/28 04:42:14;;;;;;;2.67;0.70;;;;;;;14.99;61.30;101741.63;2595434;22;20440;-64
2022/04/28 04:43:14;;;;;;;1.63;0.70;;;;;;;13.78;60.81;101543.28;2594994;22;20554;-63
2022/04/28 04:44:15;;;;;;;1.63;0.80;;;;;;;14.77;60.52;101719.03;2595537;22;20179;-63
2022/04/28 04:45:15;;;;;;;1.43;0.70;;;;;;;14.75;59.73;101724.25;2594969;22;20179;-63
2022/04/28 04:46:16;;;;;;;2.60;1.10;;;;;;;14.87;60.08;101753.47;2594959;22;20682;-63
2022/04/28 04:47:16;;;;;;;1.93;0.70;;;;;;;14.43;60.05;101698.31;2595091;22;20171;-62
2022/04/28 04:48:17;;;;;;;1.20;0.70;;;;;;;14.75;59.98;101751.38;2581684;23;20154;-63
2022/04/28 04:49:18;;;;;;;3.03;1.03;;;;;;;14.48;60.02;101717.31;2568682;23;20170;-63
2022/04/28 04:50:18;;;;;;;2.33;0.90;;;;;;;14.57;60.38;101749.00;2579312;23;20194;-63
2022/04/28 04:51:18;;;;;;;1.63;0.80;;;;;;;14.54;60.40;101751.84;2594673;22;20582;-62
2022/04/28 04:52:19;;;;;;;1.13;0.80;;;;;;;14.20;60.92;101702.00;2594761;22;20184;-63
2022/04/28 04:53:19;;;;;;;3.50;3.00;;;;;;;14.57;60.74;101760.16;2594235;22;20149;-62
2022/04/28 04:54:20;;;;;;;1.97;0.90;;;;;;;14.30;61.20;101728.09;2593946;22;20152;-63
2022/04/28 04:55:20;;;;;;;2.40;0.70;;;;;;;14.39;61.01;101764.56;2594639;22;20147;-62
2022/04/28 04:56:21;;;;;;;1.17;0.60;;;;;;;14.28;61.67;101748.03;2594861;22;20161;-64
2022/04/28 04:57:21;;;;;;;1.93;1.10;;;;;;;14.26;61.68;101733.75;2581273;23;20149;-65
2022/04/28 04:58:22;;;;;;;1.20;0.50;;;;;;;13.81;61.20;101676.13;2580495;23;20149;-64
2022/04/28 04:59:22;;;;;;;2.73;0.80;;;;;;;13.71;61.39;101672.34;2594597;22;20156;-64